Time;durP1;ratioP1;P1;durP2;ratioP2;P2;SDS_P1;SDS_P2;PMS_P1;PMS_P2;Temp;Humidity;BMP_temperature;BMP_pressure;BME280_temperature;BME280_humidity;BME280_pressure;Samples;Min_cycle;Max_cycle;Signal;HPM_P1;HPM_P2
2021/06/19 00:02:10;;;;;;;5.47;1.33;;;24.40;66.60;;;;;;5116118;28;20050;-76
2021/06/19 00:04:35;;;;;;;4.63;1.17;;;24.30;66.90;;;;;;5099195;28;20042;-83
2021/06/19 00:07:05;;;;;;;4.82;1.40;;;24.30;67.30;;;;;;5097842;28;20032;-73
2021/06/19 00:09:34;;;;;;;3.75;1.08;;;24.30;67.50;;;;;;5099968;28;20135;-73
2021/06/19 00:12:01;;;;;;;2.13;0.82;;;24.20;67.70;;;;;;5089321;28;20032;-73
2021/06/19 00:14:27;;;;;;;3.05;1.10;;;24.20;68.00;;;;;;5095901;28;20511;-73
2021/06/19 00:16:53;;;;;;;4.15;1.13;;;24.20;68.10;;;;;;5099301;28;20020;-74
2021/06/19 00:19:19;;;;;;;6.50;1.38;;;24.10;67.90;;;;;;5095352;28;20038;-74
2021/06/19 00:21:45;;;;;;;2.88;1.30;;;24.10;68.00;;;;;;5081208;28;20035;-73
2021/06/19 00:24:12;;;;;;;2.05;1.27;;;24.00;68.60;;;;;;5086971;28;20077;-74
2021/06/19 00:26:39;;;;;;;1.92;0.90;;;24.00;67.90;;;;;;5112295;28;20107;-73
2021/06/19 00:29:05;;;;;;;3.58;1.10;;;24.00;68.00;;;;;;5069526;28;20085;-73
2021/06/19 00:31:31;;;;;;;4.78;0.80;;;23.90;68.40;;;;;;5078565;28;20492;-73
2021/06/19 00:33:58;;;;;;;3.00;0.98;;;23.90;68.50;;;;;;5108548;28;20468;-73
2021/06/19 00:36:23;;;;;;;1.33;1.10;;;23.80;68.60;;;;;;5066820;28;20055;-74
2021/06/19 00:38:49;;;;;;;2.10;1.10;;;23.80;68.70;;;;;;5087699;28;20051;-73
2021/06/19 00:41:14;;;;;;;4.70;1.10;;;23.70;69.60;;;;;;5080597;28;20028;-73
2021/06/19 00:43:40;;;;;;;1.77;1.08;;;23.70;69.00;;;;;;5076909;28;20032;-73
2021/06/19 00:46:07;;;;;;;1.70;1.00;;;23.70;69.00;;;;;;5093524;28;20036;-73
2021/06/19 00:48:32;;;;;;;2.55;1.00;;;23.60;69.20;;;;;;5114327;28;20519;-73
2021/06/19 00:50:58;;;;;;;3.78;0.85;;;23.60;69.30;;;;;;5096740;28;20023;-73
2021/06/19 00:53:24;;;;;;;2.90;0.90;;;23.60;69.30;;;;;;5087874;28;20065;-74
2021/06/19 00:55:50;;;;;;;3.28;0.82;;;23.50;69.30;;;;;;5080292;28;20023;-73
2021/06/19 00:58:16;;;;;;;4.75;1.17;;;23.50;69.20;;;;;;5113794;28;20024;-73
2021/06/19 01:00:42;;;;;;;3.25;0.88;;;23.50;69.20;;;;;;5071840;28;20031;-74
2021/06/19 01:03:07;;;;;;;2.60;1.08;;;23.50;69.30;;;;;;5086157;28;20028;-73
2021/06/19 01:05:33;;;;;;;2.60;1.02;;;23.40;69.30;;;;;;5092361;28;20488;-73
2021/06/19 01:08:00;;;;;;;5.00;1.10;;;23.40;69.90;;;;;;5073367;28;20040;-73
2021/06/19 01:10:29;;;;;;;3.83;1.25;;;23.40;69.40;;;;;;5077018;28;20024;-73
2021/06/19 01:12:55;;;;;;;3.90;0.82;;;23.40;69.50;;;;;;5086555;28;20024;-75
2021/06/19 01:15:21;;;;;;;1.45;0.93;;;23.30;69.60;;;;;;5101290;28;20426;-76
2021/06/19 01:17:47;;;;;;;1.42;0.88;;;23.30;69.60;;;;;;5103663;28;20479;-76
2021/06/19 01:20:16;;;;;;;1.98;0.80;;;23.30;69.70;;;;;;5111384;28;20136;-76
2021/06/19 01:22:44;;;;;;;4.43;1.30;;;23.30;69.90;;;;;;5098579;28;20032;-83
2021/06/19 01:25:15;;;;;;;3.03;1.10;;;23.30;69.90;;;;;;5102923;28;20047;-82
2021/06/19 01:27:41;;;;;;;1.92;1.00;;;23.30;69.90;;;;;;5104715;28;20032;-82
2021/06/19 01:30:08;;;;;;;2.42;0.70;;;23.20;70.00;;;;;;5077256;28;20035;-83
2021/06/19 01:32:37;;;;;;;2.13;1.00;;;23.20;70.30;;;;;;5077023;28;20048;-83
2021/06/19 01:35:04;;;;;;;4.78;0.95;;;23.20;70.30;;;;;;5094771;28;20060;-83
2021/06/19 01:37:30;;;;;;;3.40;1.00;;;23.10;70.30;;;;;;5064378;28;20051;-76
2021/06/19 01:40:03;;;;;;;2.47;1.10;;;23.10;70.60;;;;;;5076380;28;20476;-76
2021/06/19 01:42:29;;;;;;;1.60;0.80;;;23.10;70.70;;;;;;5094742;28;20031;-76
2021/06/19 01:44:54;;;;;;;2.35;1.20;;;23.10;70.70;;;;;;5070736;28;20388;-76
2021/06/19 01:47:20;;;;;;;1.90;1.02;;;23.10;70.60;;;;;;5086078;28;20036;-76
2021/06/19 01:49:46;;;;;;;2.17;1.00;;;23.10;70.80;;;;;;5079516;28;20584;-76
2021/06/19 01:52:11;;;;;;;1.45;1.00;;;23.00;70.90;;;;;;5106235;28;20107;-76
2021/06/19 01:54:39;;;;;;;2.17;1.10;;;23.00;71.10;;;;;;5107794;28;20036;-76
2021/06/19 01:57:06;;;;;;;1.33;1.10;;;23.00;71.20;;;;;;5106738;28;20024;-76
2021/06/19 01:59:33;;;;;;;3.28;1.10;;;23.00;71.10;;;;;;5096580;28;20391;-76
2021/06/19 02:01:59;;;;;;;2.00;1.23;;;23.00;71.10;;;;;;5084494;28;20066;-75
2021/06/19 02:04:28;;;;;;;2.97;1.10;;;23.00;71.80;;;;;;5109379;28;20039;-76
2021/06/19 02:06:54;;;;;;;3.53;1.00;;;22.90;71.30;;;;;;5074581;28;20035;-76
2021/06/19 02:09:20;;;;;;;1.30;1.20;;;22.90;71.40;;;;;;5090598;28;20036;-76
2021/06/19 02:11:46;;;;;;;2.92;1.10;;;22.90;71.50;;;;;;5094026;28;20036;-76
2021/06/19 02:14:13;;;;;;;1.40;1.10;;;22.90;71.80;;;;;;5085818;28;20110;-76
2021/06/19 02:16:39;;;;;;;5.80;1.20;;;22.90;71.90;;;;;;5075562;28;20469;-76
2021/06/19 02:19:05;;;;;;;1.27;1.13;;;22.80;72.60;;;;;;5096381;28;20028;-81
2021/06/19 02:21:31;;;;;;;2.60;1.30;;;22.80;72.00;;;;;;5094058;28;20031;-82
2021/06/19 02:23:57;;;;;;;2.10;1.50;;;22.80;72.40;;;;;;5087603;28;20080;-83
2021/06/19 02:26:23;;;;;;;4.07;1.63;;;22.70;72.50;;;;;;5096257;28;20387;-83
2021/06/19 02:28:48;;;;;;;3.67;1.27;;;22.70;72.70;;;;;;5084241;28;20032;-82
2021/06/19 02:31:15;;;;;;;2.35;1.30;;;22.70;72.90;;;;;;5094065;28;20127;-82
2021/06/19 02:33:43;;;;;;;3.22;1.50;;;22.60;73.00;;;;;;5075480;28;20127;-81
2021/06/19 02:36:09;;;;;;;5.72;1.30;;;22.60;73.20;;;;;;5093898;28;20028;-83
2021/06/19 02:38:35;;;;;;;2.92;1.23;;;22.50;73.20;;;;;;5093863;28;20036;-83
2021/06/19 02:41:01;;;;;;;3.30;1.33;;;22.50;73.50;;;;;;5094675;28;20389;-82
2021/06/19 02:43:28;;;;;;;4.97;1.50;;;22.50;73.80;;;;;;5075871;28;20024;-82
2021/06/19 02:45:58;;;;;;;1.48;1.30;;;22.40;73.80;;;;;;5075629;28;20051;-82
2021/06/19 02:48:24;;;;;;;3.60;1.33;;;22.40;73.80;;;;;;5102024;28;20107;-83
2021/06/19 02:50:50;;;;;;;3.85;1.50;;;22.40;74.00;;;;;;5113416;28;20108;-73
2021/06/19 02:53:15;;;;;;;4.22;1.88;;;22.40;74.10;;;;;;5075563;28;20035;-73
2021/06/19 02:55:43;;;;;;;4.15;1.48;;;22.30;74.10;;;;;;5080614;28;20024;-73
2021/06/19 02:58:11;;;;;;;2.33;1.30;;;22.30;74.30;;;;;;5101353;28;20118;-73
2021/06/19 03:00:37;;;;;;;2.70;1.50;;;22.30;74.50;;;;;;5102590;28;20455;-73
2021/06/19 03:03:03;;;;;;;2.92;1.30;;;22.20;74.60;;;;;;5080860;28;20534;-73
2021/06/19 03:05:31;;;;;;;2.15;1.67;;;22.20;74.70;;;;;;5100937;28;20144;-73
2021/06/19 03:07:57;;;;;;;3.95;1.23;;;22.10;74.80;;;;;;5101228;28;20012;-73
2021/06/19 03:10:26;;;;;;;5.70;1.75;;;22.10;75.00;;;;;;5095228;28;20111;-73
2021/06/19 03:12:52;;;;;;;;;;;22.10;75.10;;;;;;5112724;28;20437;-73
2021/06/19 03:15:18;;;;;;;2.03;1.50;;;22.00;74.70;;;;;;5113155;28;19946;-73
2021/06/19 03:17:44;;;;;;;5.85;1.40;;;22.00;75.20;;;;;;5093541;28;20118;-73
2021/06/19 03:20:12;;;;;;;1.95;1.35;;;22.00;75.30;;;;;;5105420;28;20419;-73
2021/06/19 03:22:47;;;;;;;3.53;1.60;;;21.90;75.40;;;;;;5104179;28;20376;-73
2021/06/19 03:25:34;;;;;;;1.13;1.02;;;21.90;75.50;;;;;;5104150;28;20032;-73
2021/06/19 03:28:03;;;;;;;4.47;1.55;;;21.90;75.60;;;;;;5098432;28;20050;-73
2021/06/19 03:30:30;;;;;;;2.40;1.38;;;21.90;75.60;;;;;;5090628;28;20024;-73
2021/06/19 03:32:56;;;;;;;1.45;1.30;;;21.90;75.70;;;;;;5100028;28;20059;-73
2021/06/19 03:35:22;;;;;;;1.90;1.52;;;21.90;75.80;;;;;;5107997;28;20611;-73
2021/06/19 03:37:49;;;;;;;2.08;1.40;;;21.90;75.90;;;;;;5102457;28;20108;-73
2021/06/19 03:40:17;;;;;;;1.65;1.20;;;21.90;75.90;;;;;;5074430;28;20496;-73
2021/06/19 03:42:44;;;;;;;4.90;1.30;;;21.80;76.10;;;;;;5103723;28;20032;-73
2021/06/19 03:45:11;;;;;;;1.65;1.40;;;21.80;76.20;;;;;;5075399;28;20554;-73
2021/06/19 03:47:39;;;;;;;3.60;1.50;;;21.70;76.40;;;;;;5078834;28;20098;-73
2021/06/19 03:50:06;;;;;;;2.30;1.45;;;21.70;76.60;;;;;;5085124;28;20024;-73
2021/06/19 03:52:32;;;;;;;2.80;1.35;;;21.70;76.60;;;;;;5111258;28;20055;-73
2021/06/19 03:54:57;;;;;;;2.90;1.63;;;21.60;76.70;;;;;;5112650;28;20532;-73
2021/06/19 03:57:29;;;;;;;2.10;1.30;;;21.60;76.80;;;;;;5111707;28;20049;-73
2021/06/19 03:59:56;;;;;;;1.30;1.20;;;21.60;76.90;;;;;;5104368;28;20537;-73
2021/06/19 04:02:22;;;;;;;2.33;1.70;;;21.60;76.90;;;;;;5089589;28;20024;-73
2021/06/19 04:04:49;;;;;;;2.10;1.52;;;21.60;76.80;;;;;;5114270;28;20028;-73
2021/06/19 04:07:16;;;;;;;1.98;1.35;;;21.50;77.00;;;;;;5095128;28;20072;-76
2021/06/19 04:09:43;;;;;;;2.72;1.55;;;21.50;77.00;;;;;;5109003;28;20093;-76
2021/06/19 04:12:09;;;;;;;2.08;1.30;;;21.50;77.10;;;;;;5096292;28;20020;-76
2021/06/19 04:14:35;;;;;;;1.50;1.40;;;21.50;77.30;;;;;;5078246;28;20054;-73
2021/06/19 04:17:00;;;;;;;2.83;1.60;;;21.50;77.30;;;;;;5109440;28;20535;-73
2021/06/19 04:19:26;;;;;;;2.65;1.67;;;21.50;77.40;;;;;;5096400;28;20031;-73
2021/06/19 04:21:52;;;;;;;1.50;1.40;;;21.50;77.40;;;;;;5096498;28;20031;-73
2021/06/19 04:24:17;;;;;;;2.72;1.52;;;21.50;77.40;;;;;;5111185;28;20034;-73
2021/06/19 04:26:43;;;;;;;2.25;1.33;;;21.60;77.30;;;;;;5077621;28;20035;-74
2021/06/19 04:29:08;;;;;;;7.57;1.60;;;21.70;77.00;;;;;;5081857;28;20440;-73
2021/06/19 04:31:34;;;;;;;3.30;1.63;;;21.80;76.80;;;;;;5107740;28;20044;-73
2021/06/19 04:34:00;;;;;;;3.22;2.00;;;21.90;76.60;;;;;;5109180;28;20036;-73
2021/06/19 04:36:26;;;;;;;2.03;1.80;;;21.90;76.50;;;;;;5112745;28;20634;-73
2021/06/19 04:38:52;;;;;;;1.52;1.42;;;21.90;76.10;;;;;;5097317;28;20443;-73
2021/06/19 04:44:06;;;;;;;2.13;1.73;;;22.00;75.60;;;;;;5102504;28;20035;-73
2021/06/19 04:46:31;;;;;;;4.00;2.00;;;22.10;75.40;;;;;;5105989;28;20020;-73
2021/06/19 04:48:57;;;;;;;1.63;1.52;;;22.10;75.20;;;;;;5115713;28;20043;-74
2021/06/19 04:51:23;;;;;;;2.10;1.85;;;22.20;75.20;;;;;;5088479;28;20032;-73
2021/06/19 04:53:51;;;;;;;3.47;2.20;;;22.10;75.00;;;;;;5084993;28;20067;-73
2021/06/19 04:56:17;;;;;;;1.73;1.50;;;22.10;75.10;;;;;;5089944;28;20107;-73
2021/06/19 04:58:43;;;;;;;2.67;1.58;;;22.20;74.90;;;;;;5099173;28;20161;-73
2021/06/19 05:01:09;;;;;;;2.97;1.92;;;22.20;74.40;;;;;;5095179;28;20111;-73
2021/06/19 05:03:34;;;;;;;2.28;1.60;;;22.20;74.40;;;;;;5105335;28;20436;-73
2021/06/19 05:06:01;;;;;;;3.03;1.80;;;22.20;74.40;;;;;;5101102;28;20042;-74
2021/06/19 05:08:27;;;;;;;4.90;2.08;;;22.30;74.40;;;;;;5105128;28;20081;-73
2021/06/19 05:10:52;;;;;;;3.40;1.85;;;22.40;74.10;;;;;;5091736;28;20032;-73
2021/06/19 05:13:18;;;;;;;3.47;1.80;;;22.40;73.90;;;;;;5077248;28;20054;-73
2021/06/19 05:15:44;;;;;;;4.57;1.85;;;22.40;74.00;;;;;;5077043;28;20049;-73
2021/06/19 05:18:10;;;;;;;3.90;1.67;;;22.50;73.80;;;;;;5114091;28;20059;-73
2021/06/19 05:20:36;;;;;;;5.05;1.92;;;22.60;73.60;;;;;;5109877;28;20047;-73
2021/06/19 05:23:08;;;;;;;3.45;2.00;;;22.60;73.70;;;;;;5102822;28;20023;-73
2021/06/19 05:25:34;;;;;;;2.08;1.80;;;22.60;73.70;;;;;;5108646;28;20750;-73
2021/06/19 05:27:59;;;;;;;3.65;1.80;;;22.60;73.50;;;;;;5094701;28;20027;-74
2021/06/19 05:30:25;;;;;;;3.20;2.00;;;22.60;73.50;;;;;;5095644;28;20054;-73
2021/06/19 05:32:51;;;;;;;2.20;1.92;;;22.60;73.20;;;;;;5081059;28;20484;-73
2021/06/19 05:35:16;;;;;;;2.15;1.92;;;22.60;73.10;;;;;;5063836;28;20047;-73
2021/06/19 05:37:42;;;;;;;2.70;2.15;;;22.70;72.90;;;;;;5107279;28;20039;-73
2021/06/19 05:40:08;;;;;;;2.38;1.90;;;22.80;72.50;;;;;;5082053;28;20036;-77
2021/06/19 05:42:34;;;;;;;3.15;1.90;;;22.80;72.70;;;;;;5112899;28;20047;-74
2021/06/19 05:45:00;;;;;;;3.10;2.00;;;22.80;72.40;;;;;;5079014;28;20108;-74
2021/06/19 05:47:25;;;;;;;2.53;2.00;;;22.90;72.20;;;;;;5100305;28;20460;-75
2021/06/19 05:49:51;;;;;;;4.38;2.40;;;22.90;72.00;;;;;;5096362;28;20041;-74
2021/06/19 05:52:16;;;;;;;2.97;2.30;;;22.90;71.80;;;;;;5096273;28;20381;-74
2021/06/19 05:54:42;;;;;;;2.88;2.03;;;22.90;72.00;;;;;;5096039;28;20031;-75
2021/06/19 05:57:08;;;;;;;3.78;2.05;;;22.80;72.60;;;;;;5089060;28;20032;-75
2021/06/19 05:59:35;;;;;;;3.30;2.47;;;22.80;72.10;;;;;;5090818;28;20085;-75
2021/06/19 06:02:04;;;;;;;3.88;2.30;;;22.80;72.00;;;;;;5099139;28;20081;-75
2021/06/19 06:04:30;;;;;;;4.97;2.80;;;22.80;72.10;;;;;;5078945;28;20073;-75
2021/06/19 06:06:56;;;;;;;3.75;2.33;;;22.80;71.90;;;;;;5104672;28;20032;-75
2021/06/19 06:09:22;;;;;;;2.80;2.05;;;22.80;72.10;;;;;;5094967;28;20093;-75
2021/06/19 06:11:47;;;;;;;4.35;2.17;;;22.90;72.10;;;;;;5103841;28;20027;-75
2021/06/19 06:14:13;;;;;;;3.58;2.50;;;22.90;71.90;;;;;;5109766;28;20392;-75
2021/06/19 06:16:39;;;;;;;4.05;3.10;;;23.00;71.80;;;;;;5112002;28;20067;-75
2021/06/19 06:19:05;;;;;;;6.47;2.80;;;23.00;71.10;;;;;;5108632;28;20024;-75
2021/06/19 06:21:31;;;;;;;3.78;2.28;;;23.00;70.70;;;;;;5113448;28;20069;-75
2021/06/19 06:23:57;;;;;;;2.90;2.55;;;23.10;70.10;;;;;;5094743;28;20035;-75
2021/06/19 06:26:23;;;;;;;4.25;2.50;;;23.10;69.50;;;;;;5111385;28;20039;-75
2021/06/19 06:28:48;;;;;;;5.80;2.38;;;23.10;69.40;;;;;;5109163;28;20027;-75
2021/06/19 06:31:14;;;;;;;4.72;2.63;;;23.20;69.50;;;;;;5093966;28;20044;-75
2021/06/19 06:33:40;;;;;;;2.47;2.28;;;23.30;69.30;;;;;;5093289;28;20061;-75
2021/06/19 06:36:06;;;;;;;8.93;3.10;;;23.40;69.30;;;;;;5093579;28;20523;-75
2021/06/19 06:38:31;;;;;;;3.88;2.28;;;23.50;68.60;;;;;;5113738;28;20016;-75
2021/06/19 06:40:57;;;;;;;4.30;2.47;;;23.60;68.60;;;;;;5095554;28;20556;-75
2021/06/19 06:43:23;;;;;;;2.25;2.03;;;23.70;68.50;;;;;;5112781;28;20023;-75
2021/06/19 06:45:49;;;;;;;2.28;2.08;;;23.80;67.50;;;;;;5104347;28;20052;-75
2021/06/19 06:48:15;;;;;;;3.90;2.10;;;23.90;67.40;;;;;;5093128;28;20016;-75
2021/06/19 06:50:41;;;;;;;3.13;1.80;;;24.00;67.10;;;;;;5075039;28;20032;-75
2021/06/19 06:53:06;;;;;;;2.53;1.88;;;24.20;66.60;;;;;;5078984;28;20038;-75
2021/06/19 06:55:32;;;;;;;6.90;1.83;;;24.30;66.20;;;;;;5094538;28;20480;-75
2021/06/19 06:57:58;;;;;;;3.95;2.63;;;24.50;65.80;;;;;;5078119;28;20034;-75
2021/06/19 07:00:43;;;;;;;4.25;2.00;;;24.60;65.60;;;;;;5112090;28;20027;-79
2021/06/19 07:03:09;;;;;;;4.05;1.70;;;24.70;65.00;;;;;;5096127;28;20035;-80
2021/06/19 07:05:34;;;;;;;3.88;2.25;;;24.80;64.90;;;;;;5114422;28;20081;-75
2021/06/19 07:08:00;;;;;;;4.80;2.30;;;24.90;64.80;;;;;;5094991;28;20479;-75
2021/06/19 07:10:26;;;;;;;5.03;2.20;;;25.00;64.50;;;;;;5113133;28;20067;-75
2021/06/19 07:12:51;;;;;;;4.50;2.25;;;25.10;64.30;;;;;;5081841;28;20093;-75
2021/06/19 07:15:18;;;;;;;2.83;2.28;;;25.20;64.20;;;;;;5104455;28;20032;-76
2021/06/19 07:17:45;;;;;;;6.22;1.92;;;25.20;63.70;;;;;;5092882;28;20028;-76
2021/06/19 07:20:12;;;;;;;3.40;2.75;;;25.30;63.10;;;;;;5093294;28;20505;-75
2021/06/19 07:22:38;;;;;;;2.33;2.03;;;25.40;63.30;;;;;;5075198;28;20028;-75
2021/06/19 07:25:05;;;;;;;2.42;1.70;;;25.40;62.80;;;;;;5098259;28;20093;-75
2021/06/19 07:27:31;;;;;;;2.65;2.08;;;25.40;62.70;;;;;;5102396;28;20404;-75
2021/06/19 07:29:57;;;;;;;3.83;1.73;;;25.50;62.30;;;;;;5093685;28;20032;-75
2021/06/19 07:32:23;;;;;;;2.10;1.90;;;25.50;62.10;;;;;;5108202;28;20044;-75
2021/06/19 07:34:49;;;;;;;4.68;2.08;;;25.60;61.80;;;;;;5102126;28;20043;-75
2021/06/19 07:37:14;;;;;;;1.90;1.80;;;25.60;61.50;;;;;;5075246;28;20373;-76
2021/06/19 07:39:40;;;;;;;3.10;2.20;;;25.60;61.50;;;;;;5071061;28;20043;-76
2021/06/19 07:42:06;;;;;;;4.95;2.25;;;25.60;61.10;;;;;;5104517;28;20028;-75
2021/06/19 07:44:32;;;;;;;4.45;1.60;;;25.60;61.10;;;;;;5106315;28;20031;-75
2021/06/19 07:46:59;;;;;;;3.65;1.83;;;25.70;61.50;;;;;;5082627;28;20127;-75
2021/06/19 07:49:26;;;;;;;2.25;1.52;;;25.80;61.30;;;;;;5085596;28;20031;-75
2021/06/19 07:51:52;;;;;;;3.00;1.40;;;25.90;60.90;;;;;;5079771;28;20023;-75
2021/06/19 07:54:17;;;;;;;1.50;1.40;;;26.00;60.30;;;;;;5096366;28;20024;-75
2021/06/19 07:56:45;;;;;;;2.92;1.65;;;26.00;59.70;;;;;;5101287;28;20022;-75
2021/06/19 07:59:11;;;;;;;1.95;1.70;;;26.10;59.70;;;;;;5104380;28;20103;-75
2021/06/19 08:01:36;;;;;;;4.78;1.70;;;26.10;59.50;;;;;;5114333;28;20480;-75
2021/06/19 08:04:02;;;;;;;1.75;1.45;;;26.20;59.60;;;;;;5097712;28;20115;-80
2021/06/19 08:06:28;;;;;;;1.98;1.88;;;26.30;59.60;;;;;;5111834;28;20035;-75
2021/06/19 08:08:54;;;;;;;1.42;1.30;;;26.40;59.30;;;;;;5101035;28;20036;-75
2021/06/19 08:11:22;;;;;;;2.15;1.35;;;26.40;59.00;;;;;;5096185;28;20048;-75
2021/06/19 08:13:48;;;;;;;3.13;1.40;;;26.50;58.60;;;;;;5096047;28;20093;-75
2021/06/19 08:16:17;;;;;;;3.15;1.40;;;26.50;58.40;;;;;;5096002;28;20023;-75
2021/06/19 08:18:44;;;;;;;2.42;1.60;;;26.50;58.40;;;;;;5093233;28;20028;-75
2021/06/19 08:21:10;;;;;;;5.85;1.50;;;26.50;58.50;;;;;;5116152;28;20049;-76
2021/06/19 08:23:36;;;;;;;7.40;1.80;;;26.50;58.20;;;;;;5112923;28;20033;-75
2021/06/19 08:26:01;;;;;;;2.67;1.80;;;26.40;58.00;;;;;;5116206;28;20483;-75
2021/06/19 08:28:27;;;;;;;4.00;2.10;;;26.50;57.80;;;;;;5097602;28;20042;-75
2021/06/19 08:30:53;;;;;;;5.45;1.60;;;26.50;58.20;;;;;;5114766;28;20388;-75
2021/06/19 08:33:18;;;;;;;1.80;1.25;;;26.60;58.50;;;;;;5092267;28;20040;-75
2021/06/19 08:35:44;;;;;;;4.65;1.42;;;26.60;58.40;;;;;;5077465;28;20024;-75
2021/06/19 08:38:09;;;;;;;4.18;1.52;;;26.80;58.40;;;;;;5104444;28;20032;-75
2021/06/19 08:40:37;;;;;;;3.70;1.67;;;26.90;58.00;;;;;;5077270;28;20115;-75
2021/06/19 08:43:03;;;;;;;4.68;1.40;;;27.20;57.30;;;;;;5095497;28;20016;-75
2021/06/19 08:45:32;;;;;;;1.48;1.38;;;27.30;56.60;;;;;;5077329;28;20028;-75
2021/06/19 08:47:58;;;;;;;;;;;27.40;56.60;;;;;;5095877;28;20020;-75
2021/06/19 08:50:25;;;;;;;2.95;1.52;;;27.50;56.60;;;;;;5094574;28;20287;-81
2021/06/19 08:52:50;;;;;;;2.30;1.27;;;27.60;56.90;;;;;;5096031;28;20036;-81
2021/06/19 08:55:16;;;;;;;4.03;1.30;;;27.70;56.30;;;;;;5078224;28;20068;-81
2021/06/19 08:57:43;;;;;;;3.67;1.40;;;27.80;56.10;;;;;;5115987;28;20056;-80
2021/06/19 09:00:11;;;;;;;4.60;1.42;;;28.00;55.70;;;;;;5097776;28;20024;-80
2021/06/19 09:02:37;;;;;;;4.00;1.50;;;28.10;54.80;;;;;;5097889;28;20038;-80
2021/06/19 09:05:08;;;;;;;4.18;1.52;;;28.10;55.00;;;;;;5110752;28;20039;-80
2021/06/19 09:07:35;;;;;;;1.80;1.20;;;28.20;54.80;;;;;;5113156;28;20069;-80
2021/06/19 09:10:23;;;;;;;2.70;1.38;;;28.30;54.40;;;;;;5096815;28;20031;-81
2021/06/19 09:13:04;;;;;;;5.82;1.42;;;28.40;53.90;;;;;;5096950;28;20372;-81
2021/06/19 09:15:44;;;;;;;5.05;1.65;;;28.40;53.70;;;;;;5095427;28;20122;-81
2021/06/19 09:18:12;;;;;;;2.83;1.73;;;28.40;54.00;;;;;;5095881;28;20035;-81
2021/06/19 09:20:56;;;;;;;5.20;1.50;;;28.40;54.10;;;;;;5095108;28;20027;-80
2021/06/19 09:23:33;;;;;;;4.00;1.80;;;28.40;53.30;;;;;;5098099;28;20031;-81
2021/06/19 09:26:11;;;;;;;1.90;1.50;;;28.50;53.40;;;;;;5109272;28;20023;-81
2021/06/19 09:28:55;;;;;;;5.93;1.70;;;28.30;53.60;;;;;;5115532;28;20016;-81
2021/06/19 09:31:34;;;;;;;1.98;1.50;;;28.20;54.20;;;;;;5094638;28;20088;-75
2021/06/19 09:34:28;;;;;;;4.00;1.20;;;28.30;54.50;;;;;;5077324;28;20123;-76
2021/06/19 09:37:07;;;;;;;4.68;1.63;;;28.50;55.00;;;;;;5092004;28;20097;-76
2021/06/19 09:39:35;;;;;;;4.38;1.23;;;28.70;53.40;;;;;;5108737;28;20023;-75
2021/06/19 09:42:03;;;;;;;2.55;1.38;;;28.80;52.90;;;;;;5105965;28;20024;-75
2021/06/19 09:44:42;;;;;;;3.85;1.40;;;28.60;52.90;;;;;;5076856;28;20032;-75
2021/06/19 09:47:10;;;;;;;5.60;1.98;;;28.60;54.10;;;;;;5109989;28;20024;-76
2021/06/19 09:49:39;;;;;;;1.60;1.50;;;28.60;52.70;;;;;;5103597;28;20040;-76
2021/06/19 09:52:05;;;;;;;3.15;1.45;;;28.70;52.70;;;;;;5103933;28;20130;-76
2021/06/19 09:54:41;;;;;;;2.95;1.48;;;28.80;53.00;;;;;;5100173;28;20500;-76
2021/06/19 09:57:18;;;;;;;2.17;1.50;;;29.00;53.00;;;;;;5083368;28;20026;-76
2021/06/19 09:59:44;;;;;;;3.10;1.80;;;29.00;52.50;;;;;;5094643;28;20055;-76
2021/06/19 10:02:27;;;;;;;2.45;1.40;;;28.90;52.10;;;;;;5108439;28;20107;-76
2021/06/19 10:04:56;;;;;;;3.42;1.38;;;28.70;54.20;;;;;;5111141;28;20030;-76
2021/06/19 10:07:24;;;;;;;3.03;1.80;;;28.60;54.20;;;;;;5110255;28;20052;-76
2021/06/19 10:09:54;;;;;;;3.67;1.60;;;28.50;54.70;;;;;;5102140;28;20028;-75
2021/06/19 10:12:22;;;;;;;2.25;1.80;;;28.50;54.10;;;;;;5100286;28;20062;-75
2021/06/19 10:14:54;;;;;;;4.50;1.52;;;28.40;53.80;;;;;;5093678;28;20072;-76
2021/06/19 10:17:23;;;;;;;6.90;2.05;;;28.50;54.80;;;;;;5114110;28;20439;-88
2021/06/19 10:19:50;;;;;;;3.50;1.70;;;28.60;53.90;;;;;;5113766;28;20027;-88
2021/06/19 10:22:16;;;;;;;7.10;1.63;;;28.70;53.70;;;;;;5104880;28;20043;-88
2021/06/19 10:24:45;;;;;;;3.55;1.38;;;28.70;52.60;;;;;;5094223;28;20028;-88
2021/06/19 10:27:16;;;;;;;2.40;1.50;;;28.60;53.40;;;;;;5102332;28;20024;-76
2021/06/19 10:29:43;;;;;;;5.50;1.60;;;28.60;53.40;;;;;;5095790;28;20050;-74
2021/06/19 10:32:09;;;;;;;3.33;2.00;;;28.80;53.30;;;;;;5074954;28;20430;-74
2021/06/19 10:34:37;;;;;;;4.78;2.20;;;29.00;52.70;;;;;;5076166;28;20039;-74
2021/06/19 10:37:05;;;;;;;2.97;1.63;;;29.10;53.30;;;;;;5075689;28;20016;-74
2021/06/19 10:39:31;;;;;;;2.35;1.30;;;29.20;52.40;;;;;;5094358;28;20033;-74
2021/06/19 10:41:58;;;;;;;2.08;1.52;;;29.30;52.20;;;;;;5102733;28;20077;-74
2021/06/19 10:44:50;;;;;;;2.10;1.30;;;29.40;51.50;;;;;;5071213;28;20028;-74
2021/06/19 10:47:21;;;;;;;5.80;1.60;;;29.50;51.30;;;;;;5104785;28;20053;-73
2021/06/19 10:49:47;;;;;;;2.05;1.30;;;29.50;51.20;;;;;;5109631;28;20028;-74
2021/06/19 10:52:29;;;;;;;3.15;1.48;;;29.50;51.10;;;;;;5076818;28;20028;-74
2021/06/19 10:55:10;;;;;;;2.10;1.63;;;29.60;51.40;;;;;;5095152;28;20471;-74
2021/06/19 10:57:45;;;;;;;2.50;1.40;;;29.70;51.20;;;;;;5105928;27;20467;-72
2021/06/19 11:00:32;;;;;;;3.03;1.52;;;29.70;51.20;;;;;;5111300;28;20061;-72
2021/06/19 11:03:04;;;;;;;5.30;1.70;;;29.80;50.70;;;;;;5096442;28;20024;-72
2021/06/19 11:05:41;;;;;;;3.25;1.30;;;29.80;50.90;;;;;;5103045;28;20570;-74
2021/06/19 11:08:14;;;;;;;3.58;1.38;;;29.80;50.20;;;;;;5092839;28;20028;-74
2021/06/19 11:10:46;;;;;;;2.28;1.35;;;29.80;49.50;;;;;;5107400;28;20392;-74
2021/06/19 11:13:30;;;;;;;2.97;1.58;;;29.60;50.20;;;;;;5116653;28;20031;-74
2021/06/19 11:16:02;;;;;;;1.65;1.27;;;29.50;50.50;;;;;;5113106;28;20053;-74
2021/06/19 11:18:54;;;;;;;4.20;1.40;;;29.40;50.50;;;;;;5101691;28;20019;-73
2021/06/19 11:21:32;;;;;;;2.30;1.30;;;29.20;50.90;;;;;;5097606;28;20044;-73
2021/06/19 11:24:00;;;;;;;3.28;1.38;;;29.10;51.30;;;;;;5114481;28;20034;-74
2021/06/19 11:26:47;;;;;;;2.20;1.10;;;29.10;51.20;;;;;;5103093;28;20512;-74
2021/06/19 11:29:38;;;;;;;5.78;1.30;;;29.20;51.50;;;;;;5108207;28;20023;-74
2021/06/19 11:32:35;;;;;;;1.67;1.30;;;29.50;51.50;;;;;;5111415;28;20625;-74
2021/06/19 11:35:19;;;;;;;2.55;1.33;;;29.80;50.50;;;;;;5095587;28;20556;-75
2021/06/19 11:37:53;;;;;;;1.52;1.00;;;30.10;50.00;;;;;;5103323;28;20028;-74
2021/06/19 11:40:33;;;;;;;2.08;1.45;;;30.10;49.60;;;;;;5087084;28;20031;-75
2021/06/19 11:42:59;;;;;;;5.75;1.52;;;29.90;49.80;;;;;;5101710;28;20035;-74
2021/06/19 11:45:25;;;;;;;4.07;1.40;;;29.90;49.90;;;;;;5071716;28;20135;-74
2021/06/19 11:48:01;;;;;;;4.43;1.30;;;30.00;50.00;;;;;;5100746;28;20036;-74
2021/06/19 11:50:37;;;;;;;1.73;1.52;;;30.30;50.00;;;;;;5117341;28;20653;-74
2021/06/19 11:53:38;;;;;;;2.08;1.20;;;30.40;49.30;;;;;;5083545;28;20036;-74
2021/06/19 11:56:14;;;;;;;2.78;1.20;;;30.30;49.20;;;;;;5081053;28;20036;-74
2021/06/19 11:59:03;;;;;;;2.80;1.20;;;30.20;49.80;;;;;;5081180;28;20055;-74
2021/06/19 12:01:38;;;;;;;1.95;1.10;;;30.10;49.70;;;;;;5119571;28;20073;-74
2021/06/19 12:04:31;;;;;;;1.90;1.20;;;29.90;49.80;;;;;;5117343;28;20020;-74
2021/06/19 12:06:58;;;;;;;1.30;1.10;;;29.60;48.80;;;;;;5090189;28;20034;-74
2021/06/19 12:09:26;;;;;;;1.75;1.10;;;29.30;49.70;;;;;;5087555;28;20031;-74
2021/06/19 12:11:55;;;;;;;3.53;1.27;;;29.20;50.30;;;;;;5119532;28;20028;-74
2021/06/19 12:14:24;;;;;;;2.28;1.20;;;29.10;50.80;;;;;;5114354;28;20111;-74
2021/06/19 12:16:52;;;;;;;1.90;1.35;;;29.00;50.70;;;;;;5101275;28;20402;-74
2021/06/19 12:19:20;;;;;;;1.40;1.10;;;29.10;51.10;;;;;;5097202;28;20016;-74
2021/06/19 12:21:46;;;;;;;2.30;1.30;;;29.20;50.70;;;;;;5115251;28;20028;-74
2021/06/19 12:24:22;;;;;;;1.42;1.10;;;29.40;51.00;;;;;;5113817;28;20028;-75
2021/06/19 12:26:57;;;;;;;3.30;1.10;;;29.60;50.80;;;;;;5111430;28;20157;-74
2021/06/19 12:29:41;;;;;;;3.45;1.23;;;29.80;50.60;;;;;;5098735;28;20047;-75
2021/06/19 12:32:25;;;;;;;1.88;1.17;;;29.80;50.10;;;;;;5080185;28;20040;-75
2021/06/19 12:34:54;;;;;;;3.58;1.35;;;29.80;50.30;;;;;;5102195;28;20020;-75
2021/06/19 12:37:32;;;;;;;5.95;1.20;;;29.90;49.90;;;;;;5115870;28;20016;-74
2021/06/19 12:39:58;;;;;;;;;;;30.10;49.80;;;;;;5107617;28;20066;-75
2021/06/19 12:42:54;;;;;;;3.97;1.30;;;30.20;48.90;;;;;;5073711;28;19912;-74
2021/06/19 12:45:23;;;;;;;1.80;1.13;;;30.40;48.10;;;;;;5093454;28;20127;-75
2021/06/19 12:47:51;;;;;;;1.50;1.27;;;30.30;48.30;;;;;;5114960;28;20379;-75
2021/06/19 12:50:20;;;;;;;2.55;1.30;;;30.30;48.50;;;;;;5113622;28;20028;-74
2021/06/19 12:53:04;;;;;;;2.22;1.23;;;30.30;49.20;;;;;;5082324;28;20500;-74
2021/06/19 12:55:55;;;;;;;4.68;1.30;;;30.60;49.40;;;;;;5102402;28;20036;-74
2021/06/19 12:58:22;;;;;;;3.33;1.08;;;30.70;48.60;;;;;;5084097;28;20044;-75
2021/06/19 13:00:53;;;;;;;8.05;1.25;;;30.50;49.00;;;;;;5084205;28;20379;-75